createdAt,value
2022-09-10T00:02:12.965Z,90.60
2022-09-10T00:04:43.065Z,90.70
2022-09-10T00:07:09.947Z,90.70
2022-09-10T00:09:36.943Z,90.70
2022-09-10T00:12:04.381Z,90.70
2022-09-10T00:14:33.436Z,90.60
2022-09-10T00:17:00.497Z,90.60
2022-09-10T00:19:28.666Z,90.60
2022-09-10T00:21:58.009Z,90.70
2022-09-10T00:24:25.585Z,90.70
2022-09-10T00:26:52.540Z,90.70
2022-09-10T00:29:19.922Z,90.70
2022-09-10T00:31:46.931Z,90.70
2022-09-10T00:34:14.385Z,90.70
2022-09-10T00:36:42.269Z,90.70
2022-09-10T00:39:13.538Z,90.70
2022-09-10T00:41:41.393Z,90.70
2022-09-10T00:44:42.825Z,90.70
2022-09-10T00:47:17.345Z,90.70
2022-09-10T00:49:55.240Z,90.70
2022-09-10T00:52:22.227Z,90.70
2022-09-10T00:54:49.385Z,90.70
2022-09-10T00:57:19.142Z,90.70
2022-09-10T00:59:49.113Z,90.70
2022-09-10T01:02:16.130Z,90.70
2022-09-10T01:04:43.260Z,90.70
2022-09-10T01:07:10.761Z,90.70
2022-09-10T01:09:38.218Z,90.70
2022-09-10T01:12:36.083Z,90.70
2022-09-10T01:15:41.179Z,90.70
2022-09-10T01:18:08.135Z,90.70
2022-09-10T01:20:56.762Z,90.70
2022-09-10T01:23:48.160Z,90.70
2022-09-10T01:26:29.391Z,90.70
2022-09-10T01:29:32.689Z,90.70
2022-09-10T01:32:07.609Z,90.70
2022-09-10T01:34:58.101Z,90.70
2022-09-10T01:37:30.181Z,90.70
2022-09-10T01:39:57.798Z,90.70
2022-09-10T01:42:28.306Z,90.70
2022-09-10T01:44:57.970Z,90.70
2022-09-10T01:47:38.771Z,90.70
2022-09-10T01:50:31.278Z,90.70
2022-09-10T01:53:02.580Z,90.70
2022-09-10T01:55:48.829Z,90.70
2022-09-10T01:58:35.610Z,90.70
2022-09-10T02:01:08.750Z,90.70
2022-09-10T02:03:36.181Z,90.70
2022-09-10T02:06:03.142Z,90.70
2022-09-10T02:08:32.565Z,90.70
2022-09-10T02:11:01.065Z,90.70
2022-09-10T02:13:31.110Z,90.80
2022-09-10T02:15:59.581Z,90.80
2022-09-10T02:18:26.798Z,90.80
2022-09-10T02:20:58.251Z,90.80
2022-09-10T02:23:28.561Z,90.80
2022-09-10T02:25:55.583Z,90.80
2022-09-10T02:28:31.700Z,90.70
2022-09-10T02:30:59.207Z,90.80
2022-09-10T02:33:26.154Z,90.80
2022-09-10T02:35:54.065Z,90.80
2022-09-10T02:38:21.778Z,90.80
2022-09-10T02:40:51.732Z,90.80
2022-09-10T02:43:18.778Z,90.80
2022-09-10T02:45:45.823Z,90.80
2022-09-10T02:48:12.767Z,90.80
2022-09-10T02:50:39.789Z,90.80
2022-09-10T02:53:07.072Z,90.80
2022-09-10T02:55:34.013Z,90.80
2022-09-10T02:58:00.879Z,90.90
2022-09-10T03:00:27.838Z,90.90
2022-09-10T03:03:00.962Z,90.90
2022-09-10T03:05:29.934Z,90.90
2022-09-10T03:07:57.267Z,90.90
2022-09-10T03:10:24.598Z,90.80
2022-09-10T03:12:52.165Z,90.80
2022-09-10T03:15:20.793Z,90.80
2022-09-10T03:17:47.856Z,90.80
2022-09-10T03:20:14.807Z,90.80
2022-09-10T03:22:41.762Z,90.80
2022-09-10T03:25:08.803Z,90.80
2022-09-10T03:27:36.024Z,90.80
2022-09-10T03:30:03.283Z,90.80
2022-09-10T03:32:32.208Z,90.80
2022-09-10T03:35:00.193Z,90.80
2022-09-10T03:37:27.169Z,90.80
2022-09-10T03:39:54.214Z,90.80
2022-09-10T03:42:21.142Z,90.80
2022-09-10T03:44:48.069Z,90.80
2022-09-10T03:47:15.003Z,90.80
2022-09-10T03:49:42.257Z,90.90
2022-09-10T03:52:12.778Z,90.80
2022-09-10T03:54:40.159Z,90.80
2022-09-10T03:57:07.165Z,90.80
2022-09-10T03:59:34.554Z,90.80
2022-09-10T04:02:01.675Z,90.80
2022-09-10T04:04:29.563Z,90.80
2022-09-10T04:06:56.504Z,90.80
2022-09-10T04:09:23.439Z,90.80
2022-09-10T04:11:50.627Z,90.80
2022-09-10T04:14:17.501Z,90.80
2022-09-10T04:16:48.074Z,90.80
2022-09-10T04:19:15.416Z,90.70
2022-09-10T04:21:42.456Z,90.80
2022-09-10T04:24:12.115Z,91.00
2022-09-10T04:26:39.610Z,90.70
2022-09-10T04:29:06.973Z,90.70
2022-09-10T04:31:34.049Z,90.70
2022-09-10T04:34:02.202Z,90.70
2022-09-10T04:36:29.264Z,90.70
2022-09-10T04:38:56.282Z,90.70
2022-09-10T04:41:23.353Z,90.70
2022-09-10T04:43:50.496Z,90.70
2022-09-10T04:46:17.784Z,90.70
2022-09-10T04:48:44.862Z,90.70
2022-09-10T04:51:16.486Z,90.70
2022-09-10T04:53:44.830Z,90.70
2022-09-10T04:56:11.802Z,90.70
2022-09-10T04:58:39.406Z,90.60
2022-09-10T05:01:07.169Z,90.60
2022-09-10T05:03:34.142Z,90.60
2022-09-10T05:06:01.013Z,90.60
2022-09-10T05:08:28.036Z,90.60
2022-09-10T05:10:55.157Z,90.60
2022-09-10T05:13:22.589Z,90.50
2022-09-10T05:15:49.771Z,90.50
2022-09-10T05:18:16.950Z,90.50
2022-09-10T05:20:45.013Z,90.50
2022-09-10T05:23:11.985Z,90.50
2022-09-10T05:25:39.359Z,90.50
2022-09-10T05:28:06.246Z,90.50
2022-09-10T05:30:33.293Z,90.50
2022-09-10T05:33:03.408Z,90.50
2022-09-10T05:35:30.445Z,90.50
2022-09-10T05:38:01.189Z,90.50
2022-09-10T05:40:28.941Z,90.50
2022-09-10T05:42:55.849Z,90.50
2022-09-10T05:45:23.772Z,90.50
2022-09-10T05:47:51.527Z,90.50
2022-09-10T05:50:18.772Z,90.50
2022-09-10T05:52:46.944Z,90.50
2022-09-10T05:55:14.561Z,90.50
2022-09-10T05:57:44.373Z,90.50
2022-09-10T06:00:11.800Z,90.50
2022-09-10T06:02:38.726Z,90.50
2022-09-10T06:05:06.070Z,90.50
2022-09-10T06:07:33.222Z,90.50
2022-09-10T06:10:03.552Z,90.40
2022-09-10T06:12:30.488Z,90.40
2022-09-10T06:14:57.369Z,90.40
2022-09-10T06:17:24.304Z,90.40
2022-09-10T06:19:52.032Z,90.40
2022-09-10T06:22:18.972Z,90.40
2022-09-10T06:24:49.260Z,90.40
2022-09-10T06:27:17.371Z,90.40
2022-09-10T06:29:44.315Z,90.40
2022-09-10T06:32:11.267Z,90.40
2022-09-10T06:34:38.153Z,90.40
2022-09-10T06:37:06.189Z,90.40
2022-09-10T06:39:33.052Z,90.50
2022-09-10T06:42:00.164Z,90.50
2022-09-10T06:44:27.253Z,90.50
2022-09-10T06:47:35.899Z,90.50
2022-09-10T06:49:41.686Z,90.40
2022-09-10T06:52:08.784Z,90.40
2022-09-10T06:54:38.377Z,90.40
2022-09-10T06:57:05.298Z,90.30
2022-09-10T06:59:32.576Z,90.30
2022-09-10T07:02:00.575Z,90.30
2022-09-10T07:04:27.686Z,90.30
2022-09-10T07:06:54.610Z,90.20
2022-09-10T07:09:21.555Z,90.20
2022-09-10T07:11:48.444Z,90.20
2022-09-10T07:14:15.646Z,90.10
2022-09-10T07:16:44.443Z,90.00
2022-09-10T07:19:13.575Z,90.00
2022-09-10T07:21:40.574Z,90.00
2022-09-10T07:24:09.580Z,90.00
2022-09-10T07:26:36.561Z,89.90
2022-09-10T07:29:03.428Z,89.80
2022-09-10T07:31:31.847Z,89.70
2022-09-10T07:33:58.790Z,89.60
2022-09-10T07:36:25.734Z,89.50
2022-09-10T07:39:01.923Z,89.50
2022-09-10T07:41:30.072Z,89.50
2022-09-10T07:44:00.341Z,89.40
2022-09-10T07:46:28.508Z,89.30
2022-09-10T07:48:56.987Z,89.30
2022-09-10T07:51:24.514Z,89.20
2022-09-10T07:53:55.864Z,89.10
2022-09-10T07:56:23.454Z,89.10
2022-09-10T07:58:50.577Z,89.10
2022-09-10T08:01:20.057Z,89.00
2022-09-10T08:03:47.216Z,89.00
2022-09-10T08:06:17.044Z,88.90
2022-09-10T08:08:44.068Z,88.80
2022-09-10T08:11:17.600Z,88.60
2022-09-10T08:13:46.291Z,88.30
2022-09-10T08:16:15.451Z,88.10
2022-09-10T08:18:43.796Z,87.80
2022-09-10T08:21:11.074Z,87.60
2022-09-10T08:23:39.749Z,87.30
2022-09-10T08:26:08.303Z,87.70
2022-09-10T08:28:36.033Z,87.20
2022-09-10T08:31:09.985Z,87.10
2022-09-10T08:33:38.287Z,87.00
2022-09-10T08:36:06.210Z,87.00
2022-09-10T08:38:37.565Z,87.10
2022-09-10T08:41:21.973Z,87.20
2022-09-10T08:43:57.800Z,87.10
2022-09-10T08:46:29.511Z,87.10
2022-09-10T08:49:40.647Z,87.00
2022-09-10T08:52:29.837Z,86.90
2022-09-10T08:55:17.850Z,86.90
2022-09-10T08:58:21.051Z,86.90
2022-09-10T09:00:55.506Z,86.90
2022-09-10T09:03:28.054Z,86.90
2022-09-10T09:05:59.155Z,86.80
2022-09-10T09:08:28.389Z,86.70
2022-09-10T09:11:52.794Z,86.70
2022-09-10T09:14:19.638Z,86.50
2022-09-10T09:16:55.228Z,86.60
2022-09-10T09:19:34.987Z,86.50
2022-09-10T09:22:20.904Z,86.40
2022-09-10T09:25:07.289Z,86.20
2022-09-10T09:27:35.341Z,86.10
2022-09-10T09:30:33.945Z,86.00
2022-09-10T09:33:10.819Z,85.90
2022-09-10T09:36:08.032Z,85.80
2022-09-10T09:38:46.632Z,85.80
2022-09-10T09:42:07.403Z,85.80
2022-09-10T09:45:00.557Z,85.60
2022-09-10T09:47:27.858Z,85.30
2022-09-10T09:49:54.794Z,85.20
2022-09-10T09:52:22.751Z,85.10
2022-09-10T09:55:15.926Z,85.00
2022-09-10T09:57:43.276Z,84.70
2022-09-10T10:00:36.737Z,84.50
2022-09-10T10:03:27.900Z,84.10
2022-09-10T10:06:11.338Z,84.00
2022-09-10T10:08:41.481Z,83.70
2022-09-10T10:11:09.675Z,83.60
2022-09-10T10:13:46.574Z,83.50
2022-09-10T10:16:33.434Z,83.50
2022-09-10T10:19:00.650Z,83.30
2022-09-10T10:21:34.795Z,83.20
2022-09-10T10:24:01.930Z,83.00
2022-09-10T10:26:33.226Z,83.00
2022-09-10T10:29:06.759Z,82.80
2022-09-10T10:31:43.927Z,82.60
2022-09-10T10:34:28.979Z,82.30
2022-09-10T10:37:08.973Z,82.20
2022-09-10T10:39:51.016Z,82.10
2022-09-10T10:42:42.768Z,81.90
2022-09-10T10:45:18.602Z,81.70
2022-09-10T10:47:54.703Z,81.70
2022-09-10T10:50:33.916Z,81.60
2022-09-10T10:53:31.231Z,81.50
2022-09-10T10:56:21.976Z,81.20
2022-09-10T10:58:54.501Z,81.10
2022-09-10T11:01:31.025Z,81.00
2022-09-10T11:04:26.199Z,80.90
2022-09-10T11:07:16.827Z,80.70
2022-09-10T11:09:49.181Z,80.30
2022-09-10T11:12:21.208Z,80.00
2022-09-10T11:15:00.446Z,79.80
2022-09-10T11:17:36.227Z,79.50
2022-09-10T11:20:28.907Z,79.30
2022-09-10T11:22:59.466Z,79.10
2022-09-10T11:25:32.558Z,78.90
2022-09-10T11:28:20.257Z,78.70
2022-09-10T11:30:57.907Z,78.30
2022-09-10T11:33:58.053Z,78.20
2022-09-10T11:36:29.717Z,77.90
2022-09-10T11:39:09.196Z,78.00
2022-09-10T11:41:36.278Z,77.90
2022-09-10T11:44:22.088Z,77.80
2022-09-10T11:47:18.369Z,77.70
2022-09-10T11:49:51.198Z,77.70
2022-09-10T11:52:18.246Z,77.80
2022-09-10T11:54:47.580Z,77.70
2022-09-10T11:57:31.337Z,77.50
2022-09-10T12:00:08.845Z,77.40
2022-09-10T12:03:32.092Z,77.40
2022-09-10T12:06:17.514Z,77.40
2022-09-10T12:09:05.960Z,77.70
2022-09-10T12:11:44.876Z,77.80
2022-09-10T12:14:16.807Z,78.00
2022-09-10T12:16:53.960Z,78.00
2022-09-10T12:19:31.725Z,78.00
2022-09-10T12:22:03.580Z,77.80
2022-09-10T12:24:32.508Z,77.80
2022-09-10T12:27:00.468Z,77.70
2022-09-10T12:29:38.268Z,77.60
2022-09-10T12:32:08.402Z,77.50
2022-09-10T12:34:36.513Z,77.30
2022-09-10T12:37:03.401Z,77.20
2022-09-10T12:39:30.539Z,76.90
2022-09-10T12:41:58.574Z,76.70
2022-09-10T12:44:36.423Z,76.40
2022-09-10T12:47:15.967Z,76.00
2022-09-10T12:49:47.004Z,75.80
2022-09-10T12:52:23.156Z,75.70
2022-09-10T12:55:29.077Z,75.60
2022-09-10T12:58:22.946Z,75.40
2022-09-10T13:01:15.670Z,75.40
2022-09-10T13:03:57.005Z,75.40
2022-09-10T13:06:40.038Z,75.40
2022-09-10T13:09:23.100Z,75.40
2022-09-10T13:11:54.817Z,75.20
2022-09-10T13:14:28.085Z,75.30
2022-09-10T13:16:55.661Z,75.10
2022-09-10T13:19:22.616Z,75.20
2022-09-10T13:21:51.186Z,75.30
2022-09-10T13:24:34.227Z,75.30
2022-09-10T13:27:13.412Z,75.00
2022-09-10T13:29:41.114Z,74.80
2022-09-10T13:32:27.668Z,74.60
2022-09-10T13:34:58.868Z,74.40
2022-09-10T13:37:48.322Z,74.10
2022-09-10T13:40:39.345Z,73.80
2022-09-10T13:43:23.538Z,73.60
2022-09-10T13:45:56.863Z,73.60
2022-09-10T13:48:34.803Z,73.60
2022-09-10T13:51:24.320Z,73.50
2022-09-10T13:53:53.936Z,73.40
2022-09-10T13:56:27.641Z,73.50
2022-09-10T13:59:00.978Z,73.30
2022-09-10T14:01:50.645Z,73.20
2022-09-10T14:04:45.177Z,73.10
2022-09-10T14:07:18.222Z,73.10
2022-09-10T14:09:53.054Z,73.20
2022-09-10T14:12:30.108Z,73.20
2022-09-10T14:15:00.830Z,73.20
2022-09-10T14:17:46.599Z,73.30
2022-09-10T14:20:27.783Z,73.20
2022-09-10T14:23:06.001Z,73.20
2022-09-10T14:25:33.797Z,73.30
2022-09-10T14:28:16.053Z,73.40
2022-09-10T14:30:50.533Z,73.40
2022-09-10T14:33:35.704Z,73.50
2022-09-10T14:36:19.290Z,73.60
2022-09-10T14:38:59.799Z,73.60
2022-09-10T14:41:27.988Z,73.50
2022-09-10T14:44:16.362Z,73.50
2022-09-10T14:46:51.474Z,73.20
2022-09-10T14:49:25.160Z,73.00
2022-09-10T14:51:52.399Z,72.80
2022-09-10T14:54:23.012Z,72.80
2022-09-10T14:56:57.475Z,72.60
2022-09-10T14:59:38.778Z,72.50
2022-09-10T15:02:28.636Z,72.30
2022-09-10T15:04:55.981Z,72.30
2022-09-10T15:07:28.602Z,72.30
2022-09-10T15:09:55.823Z,72.20
2022-09-10T15:12:24.773Z,72.20
2022-09-10T15:14:51.879Z,72.00
2022-09-10T15:17:18.903Z,71.90
2022-09-10T15:19:47.114Z,71.90
2022-09-10T15:22:35.718Z,71.90
2022-09-10T15:25:11.686Z,71.70
2022-09-10T15:27:38.874Z,71.70
2022-09-10T15:30:09.403Z,71.60
2022-09-10T15:32:36.641Z,71.60
2022-09-10T15:35:06.940Z,71.70
2022-09-10T15:37:36.347Z,71.60
2022-09-10T15:40:05.339Z,71.70
2022-09-10T15:42:40.358Z,71.60
2022-09-10T15:45:10.615Z,71.50
2022-09-10T15:47:37.579Z,71.60
2022-09-10T15:50:05.051Z,71.50
2022-09-10T15:52:34.111Z,71.50
2022-09-10T15:55:01.078Z,71.30
2022-09-10T15:57:28.009Z,71.20
2022-09-10T15:59:55.616Z,71.10
2022-09-10T16:02:23.121Z,71.10
2022-09-10T16:04:50.093Z,71.20
2022-09-10T16:07:17.205Z,71.20
2022-09-10T16:14:26.182Z,71.10
2022-09-10T16:16:54.087Z,71.20
2022-09-10T16:19:21.190Z,71.30
2022-09-10T16:21:51.641Z,71.40
2022-09-10T16:24:18.641Z,71.40
2022-09-10T16:26:48.075Z,71.50
2022-09-10T16:29:25.760Z,71.40
2022-09-10T16:31:53.687Z,71.40
2022-09-10T16:34:20.893Z,71.40
2022-09-10T16:37:34.924Z,71.40
2022-09-10T16:46:17.282Z,71.70
2022-09-10T16:49:21.054Z,71.80
2022-09-10T16:51:50.209Z,72.00
2022-09-10T16:54:24.440Z,72.20
2022-09-10T16:56:55.768Z,72.30
2022-09-10T16:59:23.835Z,72.40
2022-09-10T17:02:01.337Z,72.50
2022-09-10T17:04:35.042Z,72.70
2022-09-10T17:07:11.404Z,72.70
2022-09-10T17:09:50.692Z,72.80
2022-09-10T17:16:29.842Z,73.00
2022-09-10T17:23:00.864Z,73.00
2022-09-10T17:25:30.886Z,73.00
2022-09-10T17:27:58.441Z,73.00
2022-09-10T17:30:48.878Z,72.90
2022-09-10T17:33:17.109Z,72.80
2022-09-10T17:35:44.154Z,72.80
2022-09-10T17:38:28.648Z,73.00
2022-09-10T17:41:02.928Z,73.00
2022-09-10T17:43:54.108Z,73.10
2022-09-10T17:49:55.409Z,73.20
2022-09-10T17:53:18.526Z,73.40
2022-09-10T17:55:46.611Z,73.30
2022-09-10T17:58:14.561Z,73.40
2022-09-10T18:00:48.468Z,73.40
2022-09-10T18:03:18.641Z,73.50
2022-09-10T18:05:46.064Z,73.50
2022-09-10T18:08:22.120Z,73.50
2022-09-10T18:10:49.010Z,73.50
2022-09-10T18:13:15.996Z,73.70
2022-09-10T18:15:46.503Z,73.80
2022-09-10T18:18:13.579Z,73.90
2022-09-10T18:20:41.077Z,74.00
2022-09-10T18:23:08.420Z,74.10
2022-09-10T18:25:35.484Z,74.10
2022-09-10T18:28:07.539Z,74.10
2022-09-10T18:30:41.242Z,74.10
2022-09-10T18:33:10.816Z,74.10
2022-09-10T18:35:40.433Z,74.30
2022-09-10T18:38:09.468Z,74.40
2022-09-10T18:40:39.418Z,74.60
2022-09-10T18:43:06.616Z,74.90
2022-09-10T18:45:33.871Z,75.00
2022-09-10T18:48:03.856Z,75.20
2022-09-10T18:50:33.294Z,75.50
2022-09-10T19:02:37.812Z,76.40
2022-09-10T19:04:03.538Z,76.70
2022-09-10T19:15:41.013Z,77.60
2022-09-10T19:16:55.191Z,77.90
2022-09-10T19:19:30.052Z,78.20
2022-09-10T19:22:03.827Z,78.40
2022-09-10T19:24:53.515Z,78.60
2022-09-10T19:27:27.972Z,78.80
2022-09-10T19:30:08.938Z,79.10
2022-09-10T19:32:40.491Z,79.20
2022-09-10T19:35:07.859Z,79.30
2022-09-10T19:37:37.711Z,79.50
2022-09-10T19:40:05.259Z,79.80
2022-09-10T19:42:32.475Z,79.90
2022-09-10T19:44:59.631Z,80.10
2022-09-10T19:47:26.875Z,80.20
2022-09-10T19:49:53.856Z,80.40
2022-09-10T19:52:26.039Z,80.50
2022-09-10T19:55:18.343Z,80.60
2022-09-10T19:57:45.484Z,80.80
2022-09-10T20:00:36.188Z,80.90
2022-09-10T20:03:05.925Z,81.00
2022-09-10T20:05:48.247Z,81.10
2022-09-10T20:08:22.972Z,81.30
2022-09-10T20:11:17.368Z,81.40
2022-09-10T20:13:51.106Z,81.50
2022-09-10T20:16:18.444Z,81.50
2022-09-10T20:18:46.783Z,81.60
2022-09-10T20:21:20.088Z,81.70
2022-09-10T20:23:48.432Z,81.70
2022-09-10T20:26:20.199Z,81.80
2022-09-10T20:29:00.867Z,81.90
2022-09-10T20:31:30.116Z,82.00
2022-09-10T20:34:00.457Z,82.10
2022-09-10T20:36:28.241Z,82.20
2022-09-10T20:39:01.719Z,82.30
2022-09-10T20:41:37.871Z,83.00
2022-09-10T20:44:07.963Z,82.50
2022-09-10T20:49:34.951Z,82.80
2022-09-10T20:52:21.558Z,82.90
2022-09-10T20:54:51.643Z,83.00
2022-09-10T20:57:25.282Z,83.00
2022-09-10T20:59:52.639Z,83.10
2022-09-10T21:02:22.117Z,83.20
2022-09-10T21:04:49.452Z,83.30
2022-09-10T21:07:20.671Z,83.40
2022-09-10T21:09:47.836Z,83.40
2022-09-10T21:12:16.510Z,83.50
2022-09-10T21:14:43.881Z,83.60
2022-09-10T21:21:11.924Z,83.80
2022-09-10T21:23:49.369Z,83.80
2022-09-10T21:26:18.320Z,83.80
2022-09-10T21:28:45.394Z,83.80
2022-09-10T21:31:15.676Z,83.80
2022-09-10T21:33:42.833Z,84.00
2022-09-10T21:36:17.242Z,84.00
2022-09-10T21:38:54.891Z,84.20
2022-09-10T21:41:31.456Z,84.20
2022-09-10T21:43:59.173Z,84.30
2022-09-10T21:46:26.460Z,84.40
2022-09-10T21:48:53.528Z,84.50
2022-09-10T21:51:20.732Z,84.60
2022-09-10T21:53:47.933Z,84.70
2022-09-10T21:56:16.397Z,84.70
2022-09-10T21:58:44.691Z,84.80
2022-09-10T22:01:17.458Z,84.80
2022-09-10T22:03:44.607Z,85.00
2022-09-10T22:06:13.270Z,84.90
2022-09-10T22:08:42.612Z,85.00
2022-09-10T22:11:14.471Z,85.00
2022-09-10T22:13:42.384Z,85.10
2022-09-10T22:16:10.090Z,85.20
2022-09-10T22:18:38.162Z,85.30
2022-09-10T22:21:05.312Z,85.30
2022-09-10T22:23:33.781Z,85.30
2022-09-10T22:26:08.806Z,85.40
2022-09-10T22:28:35.900Z,85.50
2022-09-10T22:31:07.737Z,85.50
2022-09-10T22:33:35.069Z,85.60
2022-09-10T22:36:21.175Z,85.60
2022-09-10T22:38:49.884Z,85.70
2022-09-10T22:41:17.022Z,85.70
2022-09-10T22:43:44.166Z,85.80
2022-09-10T22:46:11.317Z,85.70
2022-09-10T22:48:39.834Z,85.80
2022-09-10T22:51:07.883Z,85.80
2022-09-10T22:53:35.377Z,85.90
2022-09-10T22:56:02.538Z,85.90
2022-09-10T22:58:29.487Z,86.00
2022-09-10T23:00:56.507Z,86.00
2022-09-10T23:03:23.710Z,86.00
2022-09-10T23:05:50.732Z,86.10
2022-09-10T23:08:17.762Z,86.10
2022-09-10T23:10:44.759Z,86.20
2022-09-10T23:13:11.812Z,86.20
2022-09-10T23:15:39.677Z,86.30
2022-09-10T23:18:06.798Z,86.30
2022-09-10T23:20:33.915Z,86.40
2022-09-10T23:23:01.083Z,86.40
2022-09-10T23:25:28.235Z,86.50
2022-09-10T23:27:56.033Z,86.50
2022-09-10T23:30:23.166Z,86.60
2022-09-10T23:32:50.695Z,86.60
2022-09-10T23:35:18.616Z,86.60
2022-09-10T23:37:46.034Z,86.60
2022-09-10T23:40:14.003Z,87.20
2022-09-10T23:42:41.079Z,86.70
2022-09-10T23:45:08.627Z,86.70
2022-09-10T23:47:35.887Z,86.70
2022-09-10T23:50:03.410Z,86.80
2022-09-10T23:52:30.371Z,86.80
2022-09-10T23:54:57.338Z,86.80
2022-09-10T23:57:25.400Z,86.90
2022-09-10T23:59:52.821Z,87.00
